Time;durP1;ratioP1;P1;durP2;ratioP2;P2;SDS_P1;SDS_P2;PMS_P1;PMS_P2;Temp;Humidity;BMP_temperature;BMP_pressure;BME280_temperature;BME280_humidity;BME280_pressure;Samples;Min_cycle;Max_cycle;Signal;HPM_P1;HPM_P2
2021/05/24 00:00:27;;;;;;;2.60;1.70;;;;;;;6.77;84.18;95655.44;5106106;28;20508;-74
2021/05/24 00:03:11;;;;;;;2.57;1.60;;;;;;;6.73;83.83;95654.34;5093606;28;20475;-74
2021/05/24 00:05:38;;;;;;;4.80;1.80;;;;;;;6.64;84.29;95646.13;5098398;28;20043;-74
2021/05/24 00:08:04;;;;;;;2.25;1.60;;;;;;;6.70;84.46;95639.13;5097220;28;20469;-73
2021/05/24 00:10:32;;;;;;;2.33;1.65;;;;;;;6.68;84.60;95646.41;5089731;28;20044;-73
2021/05/24 00:13:01;;;;;;;2.47;1.60;;;;;;;6.63;85.00;95643.75;5108414;28;20411;-74
2021/05/24 00:15:30;;;;;;;2.22;1.73;;;;;;;6.61;84.91;95632.72;5105830;28;20040;-73
2021/05/24 00:17:56;;;;;;;2.15;1.70;;;;;;;6.57;85.38;95635.03;5108092;28;20671;-73
2021/05/24 00:20:25;;;;;;;3.15;1.67;;;;;;;6.47;85.23;95627.84;5097854;28;20036;-74
2021/05/24 00:22:52;;;;;;;2.97;1.80;;;;;;;6.43;85.87;95620.72;5093392;28;20032;-74
2021/05/24 00:25:18;;;;;;;3.13;1.73;;;;;;;6.35;86.63;95627.94;5090047;28;20044;-74
2021/05/24 00:27:44;;;;;;;2.75;1.55;;;;;;;6.38;86.83;95617.00;5091301;28;20040;-74
2021/05/24 00:30:11;;;;;;;2.38;1.60;;;;;;;6.28;87.19;95616.84;5106559;28;20038;-74
2021/05/24 00:32:37;;;;;;;3.28;1.70;;;;;;;6.35;87.07;95620.09;5100869;28;20111;-74
2021/05/24 00:35:04;;;;;;;1.70;1.60;;;;;;;6.27;86.64;95615.25;5107718;28;20126;-74
2021/05/24 00:37:29;;;;;;;3.13;1.70;;;;;;;6.27;85.88;95623.09;5092437;28;20099;-74
2021/05/24 00:39:55;;;;;;;2.22;1.70;;;;;;;6.21;86.23;95626.69;5092921;28;20119;-74
2021/05/24 00:42:21;;;;;;;2.50;1.70;;;;;;;6.13;86.62;95627.06;5091723;28;20112;-73
2021/05/24 00:44:47;;;;;;;3.55;1.90;;;;;;;6.02;87.82;95624.31;5091294;28;20044;-73
2021/05/24 00:47:12;;;;;;;2.17;1.50;;;;;;;6.00;87.51;95615.09;5110317;28;20044;-73
2021/05/24 00:49:38;;;;;;;4.55;1.70;;;;;;;5.99;86.49;95614.31;5106554;28;20067;-73
2021/05/24 00:52:05;;;;;;;1.77;1.63;;;;;;;5.89;86.80;95606.31;5102367;28;20343;-74
2021/05/24 00:54:30;;;;;;;2.97;1.60;;;;;;;5.83;86.90;95599.41;5093743;28;20478;-74
2021/05/24 00:56:59;;;;;;;2.10;1.50;;;;;;;5.78;88.09;95581.06;5093139;28;20119;-74
2021/05/24 00:59:25;;;;;;;2.20;1.50;;;;;;;5.73;87.58;95574.72;5095345;28;20036;-74
2021/05/24 01:01:50;;;;;;;3.15;1.58;;;;;;;5.69;88.15;95568.38;5093764;28;20040;-74
2021/05/24 01:04:18;;;;;;;2.97;1.52;;;;;;;5.69;87.86;95560.53;5089850;28;20151;-75
2021/05/24 01:06:44;;;;;;;2.08;1.42;;;;;;;5.72;89.01;95552.22;5089852;28;20036;-73
2021/05/24 01:09:09;;;;;;;2.47;1.70;;;;;;;5.70;88.70;95548.28;5099566;28;20043;-73
2021/05/24 01:11:36;;;;;;;2.33;1.70;;;;;;;5.67;88.30;95562.59;5105569;28;20378;-73
2021/05/24 01:14:03;;;;;;;4.20;1.70;;;;;;;5.61;88.61;95549.69;5094150;28;20043;-74
2021/05/24 01:16:30;;;;;;;2.30;1.65;;;;;;;5.58;89.06;95556.19;5089503;28;20064;-74
2021/05/24 01:18:56;;;;;;;2.13;1.70;;;;;;;5.57;89.44;95553.81;5096417;28;20039;-73
2021/05/24 01:21:23;;;;;;;2.13;1.60;;;;;;;5.49;88.43;95553.16;5093456;28;20273;-74
2021/05/24 01:23:51;;;;;;;2.42;1.60;;;;;;;5.42;88.07;95546.53;5090037;28;20055;-74
2021/05/24 01:26:18;;;;;;;3.42;1.50;;;;;;;5.35;88.39;95552.66;5089225;28;20105;-74
2021/05/24 01:28:44;;;;;;;2.40;1.52;;;;;;;5.31;89.17;95550.75;5093622;28;20036;-73
2021/05/24 01:31:10;;;;;;;1.80;1.60;;;;;;;5.28;88.05;95546.78;5100525;28;20116;-73
2021/05/24 01:33:36;;;;;;;2.40;1.75;;;;;;;5.22;88.74;95545.13;5105784;28;20039;-74
2021/05/24 01:36:07;;;;;;;2.17;1.50;;;;;;;5.22;88.27;95532.09;5110009;28;20122;-72
2021/05/24 01:38:37;;;;;;;2.72;1.73;;;;;;;5.26;88.29;95521.97;5105596;28;20085;-75
2021/05/24 01:41:05;;;;;;;2.35;1.60;;;;;;;5.27;87.25;95508.69;5104600;28;20043;-75
2021/05/24 01:43:30;;;;;;;3.22;1.45;;;;;;;5.25;87.05;95500.31;5091151;28;21960;-74
2021/05/24 01:45:56;;;;;;;3.03;1.60;;;;;;;5.19;89.31;95498.63;5109538;28;20047;-74
2021/05/24 01:48:23;;;;;;;2.03;1.40;;;;;;;5.26;88.79;95494.06;5095721;28;20047;-74
2021/05/24 01:50:49;;;;;;;4.55;1.98;;;;;;;5.27;87.99;95498.25;5106220;28;20044;-74
2021/05/24 01:53:15;;;;;;;2.42;1.70;;;;;;;5.15;88.77;95505.34;5107002;28;20044;-74
2021/05/24 01:55:41;;;;;;;2.22;1.60;;;;;;;5.07;89.66;95513.53;5089792;28;20143;-75
2021/05/24 01:58:07;;;;;;;4.57;1.73;;;;;;;5.06;89.72;95498.91;5089688;28;20036;-74
2021/05/24 02:00:33;;;;;;;1.70;1.50;;;;;;;5.07;88.98;95497.91;5094929;28;20555;-74
2021/05/24 02:03:00;;;;;;;3.13;1.88;;;;;;;5.05;88.56;95505.19;5099856;28;20043;-74
2021/05/24 02:05:27;;;;;;;2.15;1.70;;;;;;;4.96;88.83;95508.16;5108360;28;20040;-75
2021/05/24 02:07:54;;;;;;;2.65;1.67;;;;;;;4.93;89.00;95503.41;5089409;28;20036;-74
2021/05/24 02:10:23;;;;;;;2.83;1.90;;;;;;;4.93;88.39;95503.41;5097945;28;20043;-74
2021/05/24 02:12:49;;;;;;;2.85;1.88;;;;;;;4.93;88.13;95492.97;5096318;28;20039;-74
2021/05/24 02:15:18;;;;;;;3.00;1.90;;;;;;;4.97;88.12;95491.50;5095322;28;20040;-74
2021/05/24 02:17:44;;;;;;;2.65;1.83;;;;;;;4.95;87.83;95490.91;5113598;28;20048;-74
2021/05/24 02:20:11;;;;;;;4.18;1.75;;;;;;;4.88;88.62;95490.25;5111164;28;20044;-73
2021/05/24 02:22:37;;;;;;;2.55;1.83;;;;;;;4.89;88.68;95481.44;5105315;28;20517;-74
2021/05/24 02:25:04;;;;;;;2.63;1.90;;;;;;;4.91;88.71;95479.38;5111871;28;20040;-74
2021/05/24 02:27:30;;;;;;;2.95;1.98;;;;;;;4.96;87.88;95476.06;5110536;28;20390;-75
2021/05/24 02:29:55;;;;;;;2.05;1.70;;;;;;;4.99;88.00;95465.94;5092671;28;20047;-75
2021/05/24 02:32:21;;;;;;;4.63;1.80;;;;;;;4.98;87.57;95453.94;5104229;28;20038;-74
2021/05/24 02:34:47;;;;;;;3.67;1.90;;;;;;;5.02;87.63;95452.44;5111168;28;20044;-75
2021/05/24 02:37:12;;;;;;;2.25;1.70;;;;;;;5.01;87.36;95448.28;5097055;28;20094;-74
2021/05/24 02:39:38;;;;;;;2.22;1.65;;;;;;;5.00;87.18;95451.91;5092282;28;20097;-74
2021/05/24 02:42:04;;;;;;;2.45;1.75;;;;;;;4.93;88.59;95440.81;5100742;28;20048;-74
2021/05/24 02:44:29;;;;;;;5.05;1.75;;;;;;;4.91;89.25;95432.44;5107802;28;20044;-74
2021/05/24 02:46:55;;;;;;;3.42;1.90;;;;;;;4.98;89.04;95427.84;5100612;28;20054;-75
2021/05/24 02:49:20;;;;;;;3.90;1.75;;;;;;;4.98;88.50;95427.84;5092640;28;20047;-75
2021/05/24 02:51:46;;;;;;;2.35;1.75;;;;;;;4.92;88.85;95439.22;5101486;28;20040;-74
2021/05/24 02:54:11;;;;;;;3.10;1.90;;;;;;;4.86;89.19;95445.38;5109577;28;20470;-74
2021/05/24 02:56:37;;;;;;;1.80;1.58;;;;;;;4.81;88.78;95437.47;5103356;28;20194;-74
2021/05/24 02:59:04;;;;;;;3.33;1.70;;;;;;;4.86;89.07;95429.75;5092365;28;20052;-74
2021/05/24 03:01:31;;;;;;;2.25;1.70;;;;;;;4.81;88.83;95435.66;5097472;28;20457;-74
2021/05/24 03:03:58;;;;;;;3.17;1.90;;;;;;;4.84;88.09;95426.56;5095740;28;20374;-75
2021/05/24 03:06:24;;;;;;;3.10;1.90;;;;;;;4.74;89.16;95442.03;5102914;28;20100;-74
2021/05/24 03:08:51;;;;;;;3.03;1.80;;;;;;;4.72;88.90;95442.28;5104497;28;20044;-74
2021/05/24 03:11:21;;;;;;;2.97;2.00;;;;;;;4.74;88.49;95442.03;5095994;28;20067;-74
2021/05/24 03:13:47;;;;;;;3.63;1.77;;;;;;;4.71;88.44;95442.50;5107636;28;20153;-74
2021/05/24 03:16:12;;;;;;;2.65;1.90;;;;;;;4.70;88.68;95457.38;5105643;28;20148;-74
2021/05/24 03:18:38;;;;;;;2.72;1.67;;;;;;;4.63;88.24;95462.72;5099509;28;20494;-74
2021/05/24 03:21:04;;;;;;;2.80;1.60;;;;;;;4.59;88.41;95466.81;5094104;28;20410;-75
2021/05/24 03:23:30;;;;;;;2.10;1.60;;;;;;;4.62;88.44;95463.72;5103566;28;20036;-74
2021/05/24 03:25:55;;;;;;;1.90;1.60;;;;;;;4.68;87.56;95455.00;5110477;28;20047;-74
2021/05/24 03:28:22;;;;;;;2.28;1.80;;;;;;;4.64;87.67;95438.22;5095406;28;20390;-74
2021/05/24 03:30:48;;;;;;;4.68;1.70;;;;;;;4.60;87.98;95431.13;5109919;28;20384;-74
2021/05/24 03:33:13;;;;;;;4.30;1.90;;;;;;;4.57;88.33;95429.75;5098669;27;20047;-75
2021/05/24 03:35:39;;;;;;;2.28;1.67;;;;;;;4.58;88.34;95414.91;5095532;28;20036;-74
2021/05/24 03:38:05;;;;;;;3.10;1.95;;;;;;;4.48;88.75;95418.13;5105578;28;20040;-74
2021/05/24 03:40:30;;;;;;;3.10;1.83;;;;;;;4.53;90.18;95426.03;5091716;28;20040;-74
2021/05/24 03:42:56;;;;;;;2.55;1.75;;;;;;;4.49;88.96;95419.69;5106470;28;20046;-75
2021/05/24 03:45:23;;;;;;;2.20;1.73;;;;;;;4.59;89.35;95419.88;5111432;28;20035;-74
2021/05/24 03:47:50;;;;;;;2.28;1.67;;;;;;;4.53;89.22;95431.25;5102532;28;20035;-74
2021/05/24 03:50:16;;;;;;;2.53;1.67;;;;;;;4.52;87.87;95440.09;5104904;28;20513;-74
2021/05/24 03:52:43;;;;;;;4.50;1.65;;;;;;;4.47;88.29;95447.81;5104533;27;20042;-75
2021/05/24 03:55:10;;;;;;;5.20;1.70;;;;;;;4.41;89.26;95444.31;5090660;28;20459;-74
2021/05/24 03:57:36;;;;;;;2.30;1.60;;;;;;;4.51;89.31;95417.66;5099858;28;20043;-74
2021/05/24 04:00:04;;;;;;;2.65;1.70;;;;;;;4.47;89.02;95412.13;5111080;28;20072;-74
2021/05/24 04:02:30;;;;;;;1.90;1.70;;;;;;;4.57;89.70;95405.50;5109597;28;20216;-74
2021/05/24 04:04:57;;;;;;;4.82;1.77;;;;;;;4.60;89.13;95405.84;5110560;28;20508;-74
2021/05/24 04:07:24;;;;;;;2.67;1.70;;;;;;;4.73;88.63;95403.97;5106028;28;20055;-75
2021/05/24 04:09:51;;;;;;;2.95;1.70;;;;;;;4.73;88.07;95409.19;5107871;28;20028;-74
2021/05/24 04:12:18;;;;;;;2.20;1.77;;;;;;;4.74;88.29;95400.31;5109214;28;20040;-74
2021/05/24 04:14:44;;;;;;;2.95;1.70;;;;;;;4.81;89.20;95398.34;5104755;28;20039;-75
2021/05/24 04:17:13;;;;;;;3.83;1.80;;;;;;;4.83;88.96;95404.16;5109383;28;20083;-74
2021/05/24 04:19:41;;;;;;;2.50;1.80;;;;;;;4.93;89.09;95399.09;5109959;28;20196;-74
2021/05/24 04:22:07;;;;;;;2.22;1.70;;;;;;;5.01;88.00;95396.09;5107680;28;20047;-74
2021/05/24 04:24:32;;;;;;;2.78;1.80;;;;;;;5.10;88.27;95387.88;5100623;28;20500;-75
2021/05/24 04:26:58;;;;;;;2.35;1.60;;;;;;;5.12;88.25;95380.63;5091765;28;20051;-74
2021/05/24 04:29:24;;;;;;;2.75;1.80;;;;;;;5.19;87.86;95387.25;5090270;28;20040;-74
2021/05/24 04:31:49;;;;;;;2.85;1.73;;;;;;;5.38;87.05;95369.50;5107454;28;20031;-75
2021/05/24 04:34:14;;;;;;;3.15;1.77;;;;;;;5.42;86.55;95366.44;5102133;28;20127;-74
2021/05/24 04:36:40;;;;;;;1.70;1.60;;;;;;;5.46;87.15;95370.94;5088221;28;20421;-74
2021/05/24 04:39:06;;;;;;;2.15;1.70;;;;;;;5.56;86.67;95375.50;5102322;28;20046;-74
2021/05/24 04:41:31;;;;;;;4.10;1.70;;;;;;;5.70;86.06;95381.97;5098709;28;20063;-74
2021/05/24 04:44:08;;;;;;;3.97;1.50;;;;;;;5.72;85.25;95374.66;5095267;28;20123;-74
2021/05/24 04:46:34;;;;;;;2.33;1.50;;;;;;;5.84;85.52;95379.00;5110277;28;20523;-74
2021/05/24 04:48:59;;;;;;;1.73;1.52;;;;;;;5.87;84.89;95386.34;5095207;28;20046;-74
2021/05/24 04:51:25;;;;;;;3.08;1.80;;;;;;;5.82;85.75;95388.88;5090559;28;20062;-74
2021/05/24 04:53:50;;;;;;;1.90;1.60;;;;;;;5.88;86.37;95382.72;5099695;28;20065;-74
2021/05/24 04:56:16;;;;;;;2.38;1.58;;;;;;;5.94;85.37;95371.28;5097535;28;20339;-74
2021/05/24 04:58:41;;;;;;;2.65;1.70;;;;;;;5.92;86.18;95373.34;5097196;28;20059;-74
2021/05/24 05:01:07;;;;;;;3.90;1.60;;;;;;;5.98;85.58;95377.63;5090317;28;20128;-74
2021/05/24 05:03:34;;;;;;;2.60;1.50;;;;;;;6.00;85.64;95380.78;5100254;28;20043;-74
2021/05/24 05:06:00;;;;;;;2.85;1.60;;;;;;;6.02;85.44;95393.59;5108791;28;20039;-74
2021/05/24 05:08:25;;;;;;;2.53;1.50;;;;;;;6.05;85.01;95393.13;5104898;28;20032;-74
2021/05/24 05:10:51;;;;;;;2.10;1.40;;;;;;;6.10;84.64;95385.34;5110541;28;20040;-74
2021/05/24 05:13:16;;;;;;;2.90;1.80;;;;;;;6.04;85.51;95392.31;5107398;28;20035;-74
2021/05/24 05:15:42;;;;;;;2.35;1.80;;;;;;;6.18;85.57;95391.97;5110030;28;20071;-75
2021/05/24 05:18:08;;;;;;;2.95;1.60;;;;;;;6.24;85.57;95396.22;5100617;28;20043;-74
2021/05/24 05:20:34;;;;;;;2.33;1.50;;;;;;;6.28;85.87;95393.91;5104578;28;20460;-74
2021/05/24 05:22:59;;;;;;;4.50;1.60;;;;;;;6.35;85.55;95395.31;5094843;28;20111;-74
2021/05/24 05:25:25;;;;;;;1.75;1.55;;;;;;;6.36;85.32;95394.25;5099692;28;20032;-74
2021/05/24 05:27:50;;;;;;;1.58;1.40;;;;;;;6.48;85.04;95395.94;5093896;28;20040;-77
2021/05/24 05:30:17;;;;;;;1.88;1.60;;;;;;;6.59;83.68;95397.63;5102870;28;20039;-77
2021/05/24 05:32:42;;;;;;;3.13;1.60;;;;;;;6.75;82.94;95402.00;5099186;28;20040;-78
2021/05/24 05:35:08;;;;;;;2.35;1.50;;;;;;;6.64;83.33;95399.50;5104003;28;20186;-77
2021/05/24 05:37:33;;;;;;;1.80;1.40;;;;;;;6.70;83.85;95391.47;5108435;28;20508;-76
2021/05/24 05:39:59;;;;;;;1.98;1.42;;;;;;;6.86;82.17;95381.94;5103986;28;20063;-78
2021/05/24 05:42:25;;;;;;;2.05;1.40;;;;;;;7.00;82.01;95384.94;5094184;28;20051;-76
2021/05/24 05:44:51;;;;;;;2.70;1.40;;;;;;;7.15;81.40;95389.50;5100811;28;20059;-77
2021/05/24 05:47:17;;;;;;;1.65;1.50;;;;;;;7.18;81.92;95378.50;5107704;28;20044;-77
2021/05/24 05:49:47;;;;;;;1.40;1.30;;;;;;;7.28;81.82;95383.03;5095587;28;20044;-77
2021/05/24 05:52:15;;;;;;;1.70;1.40;;;;;;;7.37;80.74;95378.94;5101955;28;20067;-77
2021/05/24 05:54:41;;;;;;;2.00;1.50;;;;;;;7.57;80.04;95364.38;5097137;28;20116;-77
2021/05/24 05:57:06;;;;;;;2.67;1.40;;;;;;;7.61;79.80;95354.97;5106878;28;20040;-76
2021/05/24 05:59:32;;;;;;;2.35;1.30;;;;;;;7.64;80.82;95357.09;5098027;28;20038;-77
2021/05/24 06:01:57;;;;;;;1.30;1.20;;;;;;;7.84;79.67;95350.38;5100956;28;20126;-77
2021/05/24 06:04:23;;;;;;;1.40;1.30;;;;;;;7.87;80.77;95342.00;5093725;28;20416;-77
2021/05/24 06:06:48;;;;;;;1.30;1.20;;;;;;;8.01;78.23;95337.09;5113065;28;20067;-77
2021/05/24 06:09:14;;;;;;;2.95;1.40;;;;;;;8.02;79.24;95338.66;5104617;28;20089;-76
2021/05/24 06:11:39;;;;;;;1.20;1.10;;;;;;;8.09;79.65;95329.50;5104159;28;20039;-78
2021/05/24 06:14:05;;;;;;;2.25;1.50;;;;;;;8.26;78.57;95328.50;5106724;28;20407;-77
2021/05/24 06:16:30;;;;;;;1.30;1.20;;;;;;;8.38;78.49;95320.41;5101052;28;20047;-77
2021/05/24 06:18:56;;;;;;;1.30;1.20;;;;;;;8.33;78.34;95308.06;5095837;28;20062;-77
2021/05/24 06:21:21;;;;;;;1.85;1.27;;;;;;;8.48;77.84;95321.22;5097427;28;20057;-78
2021/05/24 06:23:47;;;;;;;1.20;1.20;;;;;;;8.51;78.82;95319.16;5097013;28;20041;-76
2021/05/24 06:26:13;;;;;;;1.83;1.20;;;;;;;8.60;77.79;95313.13;5106106;28;20489;-77
2021/05/24 06:28:38;;;;;;;1.45;1.30;;;;;;;8.65;77.06;95307.88;5110337;28;20111;-77
2021/05/24 06:31:04;;;;;;;1.95;1.20;;;;;;;8.90;76.10;95310.78;5100329;28;20105;-77
2021/05/24 06:33:30;;;;;;;1.40;1.30;;;;;;;9.10;76.53;95308.13;5093557;28;20039;-77
2021/05/24 06:35:55;;;;;;;1.13;1.13;;;;;;;9.25;74.64;95317.03;5092537;28;20444;-77
2021/05/24 06:38:21;;;;;;;1.83;1.30;;;;;;;9.33;74.32;95304.16;5093099;28;20051;-77
2021/05/24 06:40:46;;;;;;;1.08;1.05;;;;;;;9.42;74.14;95307.03;5108368;28;20490;-77
2021/05/24 06:43:12;;;;;;;1.42;1.23;;;;;;;9.51;72.76;95310.69;5094549;28;20032;-77
2021/05/24 06:45:38;;;;;;;1.20;1.10;;;;;;;9.60;72.50;95315.41;5100074;28;20484;-78
2021/05/24 06:48:04;;;;;;;1.77;1.10;;;;;;;9.77;73.20;95323.75;5105290;28;20482;-77
2021/05/24 06:50:29;;;;;;;1.42;1.05;;;;;;;9.84;71.01;95318.19;5100717;28;20040;-77
2021/05/24 06:52:55;;;;;;;2.85;1.30;;;;;;;9.92;73.65;95314.22;5096810;28;20036;-77
2021/05/24 06:55:21;;;;;;;2.13;1.20;;;;;;;10.11;70.88;95320.44;5102089;28;20043;-71
2021/05/24 06:57:46;;;;;;;1.83;1.02;;;;;;;10.19;71.00;95325.13;5106196;28;20394;-70
2021/05/24 07:00:13;;;;;;;1.45;1.33;;;;;;;10.35;70.54;95314.56;5110592;28;20067;-70
2021/05/24 07:02:42;;;;;;;1.27;1.00;;;;;;;10.49;69.46;95315.53;5111173;28;20139;-71
2021/05/24 07:05:09;;;;;;;1.50;1.17;;;;;;;10.50;69.21;95324.22;5104044;28;20036;-70
2021/05/24 07:07:35;;;;;;;3.28;1.08;;;;;;;10.55;69.64;95319.69;5111706;28;20069;-70
2021/05/24 07:10:01;;;;;;;1.25;1.15;;;;;;;10.61;69.69;95320.44;5094228;28;20115;-70
2021/05/24 07:12:27;;;;;;;3.40;1.25;;;;;;;10.69;68.25;95313.84;5101281;28;20044;-70
2021/05/24 07:14:54;;;;;;;1.70;1.20;;;;;;;10.84;69.99;95308.44;5093847;28;20044;-70
2021/05/24 07:17:20;;;;;;;1.77;1.20;;;;;;;10.73;69.44;95301.69;5092697;28;20040;-70
2021/05/24 07:19:46;;;;;;;1.52;1.30;;;;;;;10.74;68.74;95301.41;5108830;28;20096;-70
2021/05/24 07:22:11;;;;;;;1.30;1.20;;;;;;;10.70;69.05;95299.59;5107984;28;20043;-70
2021/05/24 07:24:37;;;;;;;2.88;2.15;;;;;;;10.86;68.77;95295.81;5108890;28;20472;-70
2021/05/24 07:27:03;;;;;;;3.03;1.10;;;;;;;10.72;68.94;95295.63;5095274;28;20051;-69
2021/05/24 07:29:29;;;;;;;1.67;1.20;;;;;;;11.01;69.12;95291.47;5092012;28;20244;-70
2021/05/24 07:31:55;;;;;;;1.02;0.93;;;;;;;11.28;69.84;95290.97;5102050;28;20043;-70
2021/05/24 07:34:21;;;;;;;0.90;0.90;;;;;;;11.47;68.40;95298.16;5106347;28;20055;-70
2021/05/24 07:36:46;;;;;;;1.17;1.08;;;;;;;11.57;67.54;95285.63;5112479;28;20304;-70
2021/05/24 07:39:12;;;;;;;1.27;1.17;;;;;;;11.27;69.90;95295.41;5101829;27;20040;-71
2021/05/24 07:41:38;;;;;;;1.70;1.15;;;;;;;11.42;68.83;95286.59;5104577;28;20110;-70
2021/05/24 07:44:04;;;;;;;1.08;1.00;;;;;;;11.47;68.80;95283.13;5106667;28;20044;-70
2021/05/24 07:46:30;;;;;;;1.13;1.05;;;;;;;11.33;69.30;95276.94;5103519;28;20078;-71
2021/05/24 07:48:55;;;;;;;1.58;1.15;;;;;;;11.69;70.11;95284.44;5093823;28;20486;-70
2021/05/24 07:51:21;;;;;;;1.17;1.08;;;;;;;12.07;67.14;95289.84;5100768;28;20051;-71
2021/05/24 07:53:47;;;;;;;3.22;1.10;;;;;;;12.45;64.82;95284.56;5106287;28;20028;-70
2021/05/24 07:56:12;;;;;;;1.15;1.08;;;;;;;12.51;66.75;95283.41;5094115;28;20116;-71
2021/05/24 07:58:38;;;;;;;2.33;1.25;;;;;;;12.59;65.74;95285.41;5102185;28;20116;-72
2021/05/24 08:01:03;;;;;;;1.83;1.13;;;;;;;12.56;65.05;95279.94;5103127;28;20039;-71
2021/05/24 08:03:29;;;;;;;1.88;1.17;;;;;;;12.70;64.86;95279.97;5111785;28;20691;-71
2021/05/24 08:05:54;;;;;;;1.30;1.08;;;;;;;12.97;64.54;95274.78;5102649;28;20047;-71
2021/05/24 08:08:20;;;;;;;2.45;1.20;;;;;;;13.02;63.09;95270.50;5095977;28;20056;-72
2021/05/24 08:10:46;;;;;;;1.25;1.15;;;;;;;12.82;64.47;95272.38;5098024;28;20068;-72
2021/05/24 08:13:12;;;;;;;1.00;1.00;;;;;;;13.21;62.41;95271.19;5109160;28;20047;-73
2021/05/24 08:15:38;;;;;;;1.23;1.10;;;;;;;12.86;65.50;95268.09;5108931;28;20099;-72
2021/05/24 08:18:07;;;;;;;1.73;1.20;;;;;;;13.17;63.54;95272.84;5108096;28;20412;-72
2021/05/24 08:20:33;;;;;;;1.25;1.15;;;;;;;13.41;62.37;95277.22;5091811;28;20043;-72
2021/05/24 08:22:59;;;;;;;1.70;1.00;;;;;;;13.65;61.36;95280.47;5101516;28;20051;-72
2021/05/24 08:25:24;;;;;;;1.98;1.10;;;;;;;13.68;62.14;95287.81;5108370;28;20054;-72
2021/05/24 08:27:51;;;;;;;1.40;1.10;;;;;;;13.56;62.81;95295.47;5106573;28;20490;-72
2021/05/24 08:30:17;;;;;;;1.20;1.10;;;;;;;13.61;62.78;95281.34;5098155;28;20035;-72
2021/05/24 08:32:43;;;;;;;4.53;3.75;;;;;;;13.52;61.92;95295.25;5102651;28;20413;-71
2021/05/24 08:35:10;;;;;;;1.42;1.20;;;;;;;13.33;61.40;95286.56;5092696;28;20039;-71
2021/05/24 08:37:36;;;;;;;2.40;1.40;;;;;;;13.19;62.92;95297.13;5107180;28;20114;-72
2021/05/24 08:40:05;;;;;;;4.60;1.30;;;;;;;13.36;62.89;95295.81;5095059;28;20043;-71
2021/05/24 08:42:33;;;;;;;2.33;1.40;;;;;;;13.26;65.51;95302.81;5102927;28;20051;-72
2021/05/24 08:44:59;;;;;;;2.55;1.30;;;;;;;13.26;63.59;95296.75;5098889;28;20050;-71
2021/05/24 08:47:28;;;;;;;3.25;1.63;;;;;;;13.28;66.57;95297.25;5104207;28;20040;-71
2021/05/24 08:49:54;;;;;;;2.35;1.40;;;;;;;13.32;62.15;95296.38;5099066;28;20509;-71
2021/05/24 08:52:20;;;;;;;1.92;1.20;;;;;;;13.10;66.52;95288.28;5110897;28;20040;-71
2021/05/24 08:54:46;;;;;;;2.35;1.30;;;;;;;12.88;65.36;95286.28;5093089;28;20044;-71
2021/05/24 08:57:12;;;;;;;1.77;1.30;;;;;;;13.13;64.53;95282.44;5090417;28;20054;-71
2021/05/24 08:59:38;;;;;;;1.30;1.02;;;;;;;13.16;62.93;95281.88;5100813;28;20043;-71
2021/05/24 09:02:03;;;;;;;1.88;1.25;;;;;;;13.03;66.92;95267.56;5110787;28;20420;-71
2021/05/24 09:04:39;;;;;;;1.35;1.10;;;;;;;13.03;66.85;95261.47;5098583;28;20095;-71
2021/05/24 09:07:05;;;;;;;1.40;1.30;;;;;;;13.04;66.71;95257.75;5103353;28;20050;-71
2021/05/24 09:09:31;;;;;;;1.35;1.25;;;;;;;13.12;63.81;95249.19;5103264;28;20416;-71
2021/05/24 09:11:57;;;;;;;1.48;1.20;;;;;;;13.14;64.37;95252.28;5110840;28;20043;-71
2021/05/24 09:14:25;;;;;;;1.55;1.30;;;;;;;13.12;65.77;95249.94;5098323;28;20089;-71
2021/05/24 09:16:58;;;;;;;2.13;1.13;;;;;;;13.19;65.46;95244.28;5104706;28;20046;-71
2021/05/24 09:19:25;;;;;;;2.97;1.60;;;;;;;13.33;63.21;95239.81;5096015;28;20044;-71
2021/05/24 09:21:55;;;;;;;1.88;1.70;;;;;;;13.29;64.34;95236.19;5105340;28;20127;-71
2021/05/24 09:24:29;;;;;;;1.23;1.13;;;;;;;13.39;63.26;95231.78;5110820;28;20069;-71
2021/05/24 09:27:00;;;;;;;1.63;1.10;;;;;;;13.48;62.39;95245.91;5098897;28;20478;-71
2021/05/24 09:29:39;;;;;;;1.48;1.20;;;;;;;13.63;61.73;95248.25;5094405;28;20059;-71
2021/05/24 09:32:14;;;;;;;1.17;1.13;;;;;;;13.63;62.40;95248.25;5110971;28;20374;-71
2021/05/24 09:34:41;;;;;;;1.30;1.20;;;;;;;13.59;60.96;95244.63;5113648;28;20056;-70
2021/05/24 09:37:07;;;;;;;1.70;1.30;;;;;;;13.59;61.47;95252.56;5103286;28;20059;-70
2021/05/24 09:39:34;;;;;;;3.00;1.40;;;;;;;13.60;61.58;95248.03;5099348;28;20040;-70
2021/05/24 09:42:09;;;;;;;1.60;1.40;;;;;;;13.66;63.82;95247.66;5109750;28;20074;-71
2021/05/24 09:44:42;;;;;;;3.30;1.50;;;;;;;13.83;61.04;95259.50;5098188;28;20048;-71
2021/05/24 09:47:08;;;;;;;1.20;1.10;;;;;;;13.85;60.98;95252.06;5100150;28;20409;-71
2021/05/24 09:49:34;;;;;;;1.67;1.25;;;;;;;14.02;60.73;95249.56;5113196;28;20039;-71
2021/05/24 09:52:00;;;;;;;2.20;1.00;;;;;;;13.89;62.67;95245.06;5114507;28;20066;-71
2021/05/24 09:54:31;;;;;;;2.65;1.33;;;;;;;14.16;60.69;95238.16;5108055;28;20413;-71
2021/05/24 09:56:59;;;;;;;1.67;1.40;;;;;;;14.42;59.91;95240.25;5099851;28;20067;-71
2021/05/24 09:59:25;;;;;;;1.38;1.27;;;;;;;14.70;61.73;95235.66;5101519;28;20035;-71
2021/05/24 10:01:59;;;;;;;2.53;1.23;;;;;;;14.94;59.33;95230.03;5114274;28;20108;-71
2021/05/24 10:04:30;;;;;;;1.75;1.33;;;;;;;15.16;57.31;95241.66;5100723;28;20046;-71
2021/05/24 10:06:57;;;;;;;1.67;1.20;;;;;;;15.25;57.06;95239.84;5105219;28;20043;-71
2021/05/24 10:09:23;;;;;;;1.58;1.27;;;;;;;15.46;57.74;95240.06;5101645;28;20040;-71
2021/05/24 10:11:51;;;;;;;1.30;1.20;;;;;;;15.57;56.20;95235.25;5107016;28;20512;-71
2021/05/24 10:14:20;;;;;;;2.00;1.30;;;;;;;15.47;60.37;95224.94;5097768;28;20059;-72
2021/05/24 10:16:48;;;;;;;2.03;1.38;;;;;;;15.36;57.31;95219.91;5094931;28;20044;-71
2021/05/24 10:19:17;;;;;;;1.85;1.23;;;;;;;15.68;55.77;95220.63;5095614;28;20110;-71
2021/05/24 10:21:45;;;;;;;1.98;1.35;;;;;;;16.05;56.18;95223.84;5111142;28;20036;-71
2021/05/24 10:24:12;;;;;;;1.95;1.50;;;;;;;16.19;56.58;95228.22;5107787;28;20486;-71
2021/05/24 10:26:38;;;;;;;1.60;1.50;;;;;;;15.93;58.89;95221.00;5093278;28;20044;-71
2021/05/24 10:29:05;;;;;;;4.60;1.67;;;;;;;15.79;58.39;95220.38;5098067;28;20046;-71
2021/05/24 10:31:32;;;;;;;1.67;1.40;;;;;;;16.10;56.61;95221.06;5110583;28;20043;-71
2021/05/24 10:34:21;;;;;;;1.52;1.20;;;;;;;15.80;55.11;95228.00;5108527;28;20528;-71
2021/05/24 10:37:07;;;;;;;2.08;1.30;;;;;;;15.57;58.23;95222.00;5110631;28;20043;-72
2021/05/24 10:39:58;;;;;;;1.85;1.35;;;;;;;15.47;58.40;95211.69;5100799;28;20040;-72
2021/05/24 10:42:46;;;;;;;2.10;1.33;;;;;;;15.71;59.03;95209.41;5111715;27;20032;-71
2021/05/24 10:45:25;;;;;;;2.13;1.30;;;;;;;16.06;56.70;95201.53;5104806;28;20110;-72
2021/05/24 10:48:01;;;;;;;1.60;1.30;;;;;;;16.01;56.46;95188.41;5097395;28;20055;-72
2021/05/24 10:50:31;;;;;;;2.10;1.75;;;;;;;16.21;56.23;95194.19;5105029;28;20093;-72
2021/05/24 10:53:00;;;;;;;1.50;1.40;;;;;;;16.42;57.08;95200.44;5113677;28;20032;-71
2021/05/24 10:55:26;;;;;;;1.80;1.38;;;;;;;16.29;58.21;95196.03;5112204;28;20096;-71
2021/05/24 10:58:14;;;;;;;2.53;1.30;;;;;;;16.37;56.32;95192.63;5102561;28;20040;-71
2021/05/24 11:00:58;;;;;;;2.63;1.42;;;;;;;16.42;58.90;95189.81;5112315;28;20513;-70
2021/05/24 11:03:23;;;;;;;1.85;1.40;;;;;;;16.46;56.22;95184.63;5112338;28;20058;-70
2021/05/24 11:06:11;;;;;;;2.10;1.48;;;;;;;16.41;56.17;95171.53;5110688;28;20043;-71
2021/05/24 11:08:41;;;;;;;3.08;1.70;;;;;;;16.34;57.24;95171.22;5106119;28;20037;-71
2021/05/24 11:11:18;;;;;;;3.13;1.73;;;;;;;16.34;60.12;95161.38;5092587;28;20555;-70
2021/05/24 11:14:02;;;;;;;1.58;1.40;;;;;;;16.50;59.71;95152.94;5092276;28;20059;-70
2021/05/24 11:16:28;;;;;;;1.95;1.40;;;;;;;16.65;59.07;95155.09;5094697;28;20059;-71
2021/05/24 11:19:11;;;;;;;2.25;1.50;;;;;;;16.75;58.19;95149.44;5111256;28;20039;-71
2021/05/24 11:21:38;;;;;;;1.20;1.10;;;;;;;16.98;55.94;95141.22;5092586;28;20044;-71
2021/05/24 11:24:34;;;;;;;1.50;1.40;;;;;;;17.22;56.60;95137.22;5106390;28;20092;-71
2021/05/24 11:27:10;;;;;;;2.67;1.42;;;;;;;17.31;54.32;95125.47;5098204;28;20466;-71
2021/05/24 11:29:37;;;;;;;1.40;1.30;;;;;;;17.50;55.08;95118.94;5101488;28;20078;-70
2021/05/24 11:32:29;;;;;;;2.63;1.40;;;;;;;17.44;54.93;95113.03;5102071;27;20040;-70
2021/05/24 11:34:55;;;;;;;1.65;1.50;;;;;;;17.16;54.48;95114.59;5090753;28;20054;-71
2021/05/24 11:37:41;;;;;;;2.00;1.30;;;;;;;17.28;55.26;95109.34;5095519;28;20044;-70
2021/05/24 11:40:18;;;;;;;1.65;1.40;;;;;;;17.36;59.66;95105.88;5104282;28;20050;-70